sensor_id;sensor_type;location;lat;lon;timestamp;P1;durP1;ratioP1;P2;durP2;ratioP2
62535;SDS011;63050;47.514;18.920;2022-12-08T00:01:43;10.80;;;7.20;;
62535;SDS011;63050;47.514;18.920;2022-12-08T00:06:44;11.30;;;6.20;;
62535;SDS011;63050;47.514;18.920;2022-12-08T00:17:09;12.80;;;7.70;;
62535;SDS011;63050;47.514;18.920;2022-12-08T00:22:11;12.60;;;7.90;;
62535;SDS011;63050;47.514;18.920;2022-12-08T00:27:13;12.20;;;8.10;;
62535;SDS011;63050;47.514;18.920;2022-12-08T00:32:15;11.90;;;7.40;;
62535;SDS011;63050;47.514;18.920;2022-12-08T00:37:16;12.40;;;6.80;;
62535;SDS011;63050;47.514;18.920;2022-12-08T00:42:17;10.80;;;7.40;;
62535;SDS011;63050;47.514;18.920;2022-12-08T00:47:17;13.30;;;7.70;;
62535;SDS011;63050;47.514;18.920;2022-12-08T00:52:18;12.60;;;7.70;;
62535;SDS011;63050;47.514;18.920;2022-12-08T00:57:19;11.70;;;6.80;;
62535;SDS011;63050;47.514;18.920;2022-12-08T01:02:20;9.70;;;6.60;;
62535;SDS011;63050;47.514;18.920;2022-12-08T01:07:21;11.60;;;7.20;;
62535;SDS011;63050;47.514;18.920;2022-12-08T01:12:22;12.30;;;7.50;;
62535;SDS011;63050;47.514;18.920;2022-12-08T01:17:23;14.60;;;8.70;;
62535;SDS011;63050;47.514;18.920;2022-12-08T01:22:24;13.30;;;8.40;;
62535;SDS011;63050;47.514;18.920;2022-12-08T01:27:25;13.50;;;7.80;;
62535;SDS011;63050;47.514;18.920;2022-12-08T01:32:26;12.60;;;7.70;;
62535;SDS011;63050;47.514;18.920;2022-12-08T01:37:28;10.90;;;6.20;;
62535;SDS011;63050;47.514;18.920;2022-12-08T01:42:29;10.80;;;6.50;;
62535;SDS011;63050;47.514;18.920;2022-12-08T01:47:33;9.30;;;6.60;;
62535;SDS011;63050;47.514;18.920;2022-12-08T01:52:42;11.40;;;6.70;;
62535;SDS011;63050;47.514;18.920;2022-12-08T01:57:50;12.10;;;6.80;;
62535;SDS011;63050;47.514;18.920;2022-12-08T02:03:04;10.40;;;6.40;;
62535;SDS011;63050;47.514;18.920;2022-12-08T02:08:08;11.10;;;6.90;;
62535;SDS011;63050;47.514;18.920;2022-12-08T02:13:16;11.60;;;6.40;;
62535;SDS011;63050;47.514;18.920;2022-12-08T02:39:27;11.80;;;6.60;;
62535;SDS011;63050;47.514;18.920;2022-12-08T02:44:42;10.10;;;6.10;;
62535;SDS011;63050;47.514;18.920;2022-12-08T02:49:46;10.40;;;5.80;;
62535;SDS011;63050;47.514;18.920;2022-12-08T03:00:07;11.30;;;6.80;;
62535;SDS011;63050;47.514;18.920;2022-12-08T03:15:27;11.30;;;7.80;;
62535;SDS011;63050;47.514;18.920;2022-12-08T03:20:29;13.90;;;7.20;;
62535;SDS011;63050;47.514;18.920;2022-12-08T03:25:32;11.70;;;7.60;;
62535;SDS011;63050;47.514;18.920;2022-12-08T03:30:38;13.10;;;7.90;;
62535;SDS011;63050;47.514;18.920;2022-12-08T03:35:40;15.60;;;8.60;;
62535;SDS011;63050;47.514;18.920;2022-12-08T03:40:41;14.20;;;8.20;;
62535;SDS011;63050;47.514;18.920;2022-12-08T03:45:43;12.30;;;8.00;;
62535;SDS011;63050;47.514;18.920;2022-12-08T03:50:44;12.20;;;7.30;;
62535;SDS011;63050;47.514;18.920;2022-12-08T03:55:44;11.30;;;7.30;;
62535;SDS011;63050;47.514;18.920;2022-12-08T04:00:45;9.40;;;7.30;;
62535;SDS011;63050;47.514;18.920;2022-12-08T04:05:47;9.80;;;6.40;;
62535;SDS011;63050;47.514;18.920;2022-12-08T04:10:48;9.50;;;6.40;;
62535;SDS011;63050;47.514;18.920;2022-12-08T04:15:49;12.70;;;6.90;;
62535;SDS011;63050;47.514;18.920;2022-12-08T04:20:49;10.90;;;6.60;;
62535;SDS011;63050;47.514;18.920;2022-12-08T04:25:51;10.80;;;6.70;;
62535;SDS011;63050;47.514;18.920;2022-12-08T04:30:52;9.90;;;6.20;;
62535;SDS011;63050;47.514;18.920;2022-12-08T04:41:14;12.70;;;8.50;;
62535;SDS011;63050;47.514;18.920;2022-12-08T04:46:15;13.60;;;7.70;;
62535;SDS011;63050;47.514;18.920;2022-12-08T04:51:16;11.00;;;7.00;;
62535;SDS011;63050;47.514;18.920;2022-12-08T04:56:18;14.30;;;8.70;;
62535;SDS011;63050;47.514;18.920;2022-12-08T05:01:19;13.60;;;7.90;;
62535;SDS011;63050;47.514;18.920;2022-12-08T05:06:20;12.70;;;7.80;;
62535;SDS011;63050;47.514;18.920;2022-12-08T05:11:20;17.20;;;8.60;;
62535;SDS011;63050;47.514;18.920;2022-12-08T05:16:21;13.40;;;8.80;;
62535;SDS011;63050;47.514;18.920;2022-12-08T05:21:22;12.70;;;7.60;;
62535;SDS011;63050;47.514;18.920;2022-12-08T05:26:23;14.30;;;8.90;;
62535;SDS011;63050;47.514;18.920;2022-12-08T05:31:24;12.80;;;8.50;;
62535;SDS011;63050;47.514;18.920;2022-12-08T05:36:25;13.60;;;9.10;;
62535;SDS011;63050;47.514;18.920;2022-12-08T05:41:25;14.80;;;9.30;;
62535;SDS011;63050;47.514;18.920;2022-12-08T05:46:26;12.60;;;7.80;;
62535;SDS011;63050;47.514;18.920;2022-12-08T05:51:27;10.20;;;7.30;;
62535;SDS011;63050;47.514;18.920;2022-12-08T05:56:28;12.80;;;7.80;;
62535;SDS011;63050;47.514;18.920;2022-12-08T06:01:29;12.20;;;8.40;;
62535;SDS011;63050;47.514;18.920;2022-12-08T06:06:33;10.30;;;6.80;;
62535;SDS011;63050;47.514;18.920;2022-12-08T06:11:34;10.90;;;7.50;;
62535;SDS011;63050;47.514;18.920;2022-12-08T06:16:35;12.50;;;8.00;;
62535;SDS011;63050;47.514;18.920;2022-12-08T06:21:36;16.00;;;9.40;;
62535;SDS011;63050;47.514;18.920;2022-12-08T06:26:37;11.80;;;7.20;;
62535;SDS011;63050;47.514;18.920;2022-12-08T06:31:39;13.70;;;9.20;;
62535;SDS011;63050;47.514;18.920;2022-12-08T06:36:40;13.50;;;9.40;;
62535;SDS011;63050;47.514;18.920;2022-12-08T06:41:41;12.70;;;8.70;;
62535;SDS011;63050;47.514;18.920;2022-12-08T06:47:01;15.30;;;9.20;;
62535;SDS011;63050;47.514;18.920;2022-12-08T06:52:02;11.60;;;8.10;;
62535;SDS011;63050;47.514;18.920;2022-12-08T06:57:02;13.80;;;9.90;;
62535;SDS011;63050;47.514;18.920;2022-12-08T07:02:03;14.20;;;9.00;;
62535;SDS011;63050;47.514;18.920;2022-12-08T07:07:04;10.20;;;7.60;;
62535;SDS011;63050;47.514;18.920;2022-12-08T07:12:05;13.30;;;8.20;;
62535;SDS011;63050;47.514;18.920;2022-12-08T07:17:06;14.60;;;9.40;;
62535;SDS011;63050;47.514;18.920;2022-12-08T07:22:07;13.80;;;8.50;;
62535;SDS011;63050;47.514;18.920;2022-12-08T07:27:08;12.10;;;8.10;;
62535;SDS011;63050;47.514;18.920;2022-12-08T07:32:08;10.70;;;8.10;;
62535;SDS011;63050;47.514;18.920;2022-12-08T07:37:09;10.50;;;7.40;;
62535;SDS011;63050;47.514;18.920;2022-12-08T07:42:10;11.40;;;8.10;;
62535;SDS011;63050;47.514;18.920;2022-12-08T07:47:11;9.70;;;7.80;;
62535;SDS011;63050;47.514;18.920;2022-12-08T07:52:12;13.20;;;7.80;;
62535;SDS011;63050;47.514;18.920;2022-12-08T07:57:13;10.40;;;7.70;;
62535;SDS011;63050;47.514;18.920;2022-12-08T08:02:17;15.10;;;9.00;;
62535;SDS011;63050;47.514;18.920;2022-12-08T08:07:18;12.20;;;8.20;;
62535;SDS011;63050;47.514;18.920;2022-12-08T08:12:19;14.80;;;9.30;;
62535;SDS011;63050;47.514;18.920;2022-12-08T08:17:20;20.60;;;15.20;;
62535;SDS011;63050;47.514;18.920;2022-12-08T08:22:21;18.70;;;12.00;;
62535;SDS011;63050;47.514;18.920;2022-12-08T08:27:22;16.00;;;10.40;;
62535;SDS011;63050;47.514;18.920;2022-12-08T08:32:24;13.90;;;10.60;;
62535;SDS011;63050;47.514;18.920;2022-12-08T08:37:25;13.70;;;8.70;;
62535;SDS011;63050;47.514;18.920;2022-12-08T08:42:26;14.20;;;8.70;;
62535;SDS011;63050;47.514;18.920;2022-12-08T08:47:27;16.30;;;9.10;;
62535;SDS011;63050;47.514;18.920;2022-12-08T08:52:28;13.40;;;10.20;;
62535;SDS011;63050;47.514;18.920;2022-12-08T08:57:29;16.10;;;10.50;;
62535;SDS011;63050;47.514;18.920;2022-12-08T09:02:30;18.70;;;12.30;;
62535;SDS011;63050;47.514;18.920;2022-12-08T09:07:31;18.30;;;11.00;;
62535;SDS011;63050;47.514;18.920;2022-12-08T09:12:32;14.70;;;10.00;;
62535;SDS011;63050;47.514;18.920;2022-12-08T09:17:33;13.30;;;8.70;;
62535;SDS011;63050;47.514;18.920;2022-12-08T09:22:34;12.60;;;9.30;;
62535;SDS011;63050;47.514;18.920;2022-12-08T09:27:34;13.90;;;9.60;;
62535;SDS011;63050;47.514;18.920;2022-12-08T09:32:35;17.20;;;11.50;;
62535;SDS011;63050;47.514;18.920;2022-12-08T09:37:37;14.70;;;11.20;;
62535;SDS011;63050;47.514;18.920;2022-12-08T09:42:54;16.40;;;11.80;;
62535;SDS011;63050;47.514;18.920;2022-12-08T09:48:06;17.50;;;10.70;;
62535;SDS011;63050;47.514;18.920;2022-12-08T09:53:12;20.20;;;12.10;;
62535;SDS011;63050;47.514;18.920;2022-12-08T09:58:31;15.20;;;10.80;;
62535;SDS011;63050;47.514;18.920;2022-12-08T10:03:43;14.80;;;10.70;;
62535;SDS011;63050;47.514;18.920;2022-12-08T10:08:47;18.00;;;11.10;;
62535;SDS011;63050;47.514;18.920;2022-12-08T10:19:19;19.10;;;12.50;;
62535;SDS011;63050;47.514;18.920;2022-12-08T10:24:27;15.20;;;11.40;;
62535;SDS011;63050;47.514;18.920;2022-12-08T10:29:33;17.90;;;11.80;;
62535;SDS011;63050;47.514;18.920;2022-12-08T10:34:34;15.00;;;11.10;;
62535;SDS011;63050;47.514;18.920;2022-12-08T10:39:39;13.90;;;10.40;;
62535;SDS011;63050;47.514;18.920;2022-12-08T10:50:08;13.50;;;10.20;;
62535;SDS011;63050;47.514;18.920;2022-12-08T10:55:19;16.90;;;10.40;;
62535;SDS011;63050;47.514;18.920;2022-12-08T11:00:22;14.50;;;12.90;;
62535;SDS011;63050;47.514;18.920;2022-12-08T11:05:34;14.60;;;10.70;;
62535;SDS011;63050;47.514;18.920;2022-12-08T11:10:36;12.40;;;9.80;;
62535;SDS011;63050;47.514;18.920;2022-12-08T11:15:43;12.90;;;9.60;;
62535;SDS011;63050;47.514;18.920;2022-12-08T11:20:45;13.50;;;8.50;;
62535;SDS011;63050;47.514;18.920;2022-12-08T11:25:46;11.40;;;8.30;;
62535;SDS011;63050;47.514;18.920;2022-12-08T11:30:48;10.80;;;7.80;;
62535;SDS011;63050;47.514;18.920;2022-12-08T11:35:59;14.10;;;8.50;;
62535;SDS011;63050;47.514;18.920;2022-12-08T11:41:04;12.40;;;9.60;;
62535;SDS011;63050;47.514;18.920;2022-12-08T11:46:18;14.40;;;10.90;;
62535;SDS011;63050;47.514;18.920;2022-12-08T11:51:56;16.00;;;10.70;;
62535;SDS011;63050;47.514;18.920;2022-12-08T11:57:02;13.10;;;9.10;;
62535;SDS011;63050;47.514;18.920;2022-12-08T12:02:05;15.60;;;10.60;;
62535;SDS011;63050;47.514;18.920;2022-12-08T12:12:57;18.90;;;11.60;;
62535;SDS011;63050;47.514;18.920;2022-12-08T12:18:10;16.40;;;10.40;;
62535;SDS011;63050;47.514;18.920;2022-12-08T12:28:21;13.40;;;10.20;;
62535;SDS011;63050;47.514;18.920;2022-12-08T12:33:24;14.30;;;10.30;;
62535;SDS011;63050;47.514;18.920;2022-12-08T12:38:26;18.90;;;11.50;;
62535;SDS011;63050;47.514;18.920;2022-12-08T12:54:43;12.50;;;9.50;;
62535;SDS011;63050;47.514;18.920;2022-12-08T13:09:57;13.10;;;10.40;;
62535;SDS011;63050;47.514;18.920;2022-12-08T13:15:19;18.00;;;10.10;;
62535;SDS011;63050;47.514;18.920;2022-12-08T13:20:21;17.20;;;10.00;;
62535;SDS011;63050;47.514;18.920;2022-12-08T13:30:41;15.60;;;10.50;;
62535;SDS011;63050;47.514;18.920;2022-12-08T13:35:46;19.80;;;11.40;;
62535;SDS011;63050;47.514;18.920;2022-12-08T13:40:50;18.20;;;13.00;;
62535;SDS011;63050;47.514;18.920;2022-12-08T13:45:51;18.60;;;13.70;;
62535;SDS011;63050;47.514;18.920;2022-12-08T13:50:54;17.30;;;12.60;;
62535;SDS011;63050;47.514;18.920;2022-12-08T13:55:59;17.80;;;13.50;;
62535;SDS011;63050;47.514;18.920;2022-12-08T14:06:05;19.60;;;13.40;;
62535;SDS011;63050;47.514;18.920;2022-12-08T14:11:06;19.70;;;13.10;;
62535;SDS011;63050;47.514;18.920;2022-12-08T14:16:14;19.80;;;12.80;;
62535;SDS011;63050;47.514;18.920;2022-12-08T14:21:27;20.50;;;14.50;;
62535;SDS011;63050;47.514;18.920;2022-12-08T14:26:30;20.30;;;13.40;;
62535;SDS011;63050;47.514;18.920;2022-12-08T14:31:33;20.10;;;14.60;;
62535;SDS011;63050;47.514;18.920;2022-12-08T14:36:34;18.50;;;13.40;;
62535;SDS011;63050;47.514;18.920;2022-12-08T14:41:35;16.40;;;11.70;;
62535;SDS011;63050;47.514;18.920;2022-12-08T14:46:36;17.40;;;13.20;;
62535;SDS011;63050;47.514;18.920;2022-12-08T14:51:37;19.70;;;13.40;;
62535;SDS011;63050;47.514;18.920;2022-12-08T15:01:58;17.00;;;12.20;;
62535;SDS011;63050;47.514;18.920;2022-12-08T15:07:22;17.00;;;12.60;;
62535;SDS011;63050;47.514;18.920;2022-12-08T15:12:26;21.20;;;13.40;;
62535;SDS011;63050;47.514;18.920;2022-12-08T15:27:48;17.60;;;12.70;;
62535;SDS011;63050;47.514;18.920;2022-12-08T15:32:49;17.20;;;12.90;;
62535;SDS011;63050;47.514;18.920;2022-12-08T15:37:51;19.80;;;12.80;;
62535;SDS011;63050;47.514;18.920;2022-12-08T15:42:52;19.30;;;14.90;;
62535;SDS011;63050;47.514;18.920;2022-12-08T15:47:55;19.20;;;13.90;;
62535;SDS011;63050;47.514;18.920;2022-12-08T15:52:56;19.90;;;13.30;;
62535;SDS011;63050;47.514;18.920;2022-12-08T15:57:57;25.90;;;15.00;;
62535;SDS011;63050;47.514;18.920;2022-12-08T16:02:58;20.90;;;14.50;;
62535;SDS011;63050;47.514;18.920;2022-12-08T16:07:59;25.80;;;18.00;;
62535;SDS011;63050;47.514;18.920;2022-12-08T16:13:00;17.90;;;13.30;;
62535;SDS011;63050;47.514;18.920;2022-12-08T16:18:22;31.20;;;20.10;;
62535;SDS011;63050;47.514;18.920;2022-12-08T16:23:26;27.30;;;19.60;;
62535;SDS011;63050;47.514;18.920;2022-12-08T16:28:27;23.40;;;16.20;;
62535;SDS011;63050;47.514;18.920;2022-12-08T16:33:27;19.60;;;14.10;;
62535;SDS011;63050;47.514;18.920;2022-12-08T16:38:28;17.90;;;12.90;;
62535;SDS011;63050;47.514;18.920;2022-12-08T16:43:32;20.40;;;13.30;;
62535;SDS011;63050;47.514;18.920;2022-12-08T16:48:34;19.90;;;14.90;;
62535;SDS011;63050;47.514;18.920;2022-12-08T16:53:35;19.10;;;14.40;;
62535;SDS011;63050;47.514;18.920;2022-12-08T16:58:35;20.20;;;13.60;;
62535;SDS011;63050;47.514;18.920;2022-12-08T17:03:36;20.40;;;13.80;;
62535;SDS011;63050;47.514;18.920;2022-12-08T17:08:38;16.90;;;12.40;;
62535;SDS011;63050;47.514;18.920;2022-12-08T17:13:40;15.60;;;11.40;;
62535;SDS011;63050;47.514;18.920;2022-12-08T17:18:41;18.80;;;13.50;;
62535;SDS011;63050;47.514;18.920;2022-12-08T17:23:42;16.80;;;11.70;;
62535;SDS011;63050;47.514;18.920;2022-12-08T17:28:43;20.00;;;14.00;;
62535;SDS011;63050;47.514;18.920;2022-12-08T17:33:44;17.60;;;12.60;;
62535;SDS011;63050;47.514;18.920;2022-12-08T17:38:46;16.40;;;12.20;;
62535;SDS011;63050;47.514;18.920;2022-12-08T17:43:47;16.40;;;11.20;;
62535;SDS011;63050;47.514;18.920;2022-12-08T17:48:48;15.60;;;11.40;;
62535;SDS011;63050;47.514;18.920;2022-12-08T17:53:50;16.10;;;11.00;;
62535;SDS011;63050;47.514;18.920;2022-12-08T17:58:51;16.00;;;11.70;;
62535;SDS011;63050;47.514;18.920;2022-12-08T18:03:52;19.10;;;12.30;;
62535;SDS011;63050;47.514;18.920;2022-12-08T18:08:54;17.70;;;12.70;;
62535;SDS011;63050;47.514;18.920;2022-12-08T18:13:55;17.80;;;11.70;;
62535;SDS011;63050;47.514;18.920;2022-12-08T18:18:56;15.30;;;11.30;;
62535;SDS011;63050;47.514;18.920;2022-12-08T18:23:58;16.10;;;11.50;;
62535;SDS011;63050;47.514;18.920;2022-12-08T18:29:00;14.10;;;10.10;;
62535;SDS011;63050;47.514;18.920;2022-12-08T18:34:02;16.60;;;11.10;;
62535;SDS011;63050;47.514;18.920;2022-12-08T18:39:03;19.10;;;12.40;;
62535;SDS011;63050;47.514;18.920;2022-12-08T18:44:04;19.50;;;12.80;;
62535;SDS011;63050;47.514;18.920;2022-12-08T18:49:08;17.50;;;13.70;;
62535;SDS011;63050;47.514;18.920;2022-12-08T18:54:11;11.10;;;10.90;;
62535;SDS011;63050;47.514;18.920;2022-12-08T18:59:13;15.90;;;11.40;;
62535;SDS011;63050;47.514;18.920;2022-12-08T19:04:14;18.80;;;13.20;;
62535;SDS011;63050;47.514;18.920;2022-12-08T19:09:16;18.00;;;11.80;;
62535;SDS011;63050;47.514;18.920;2022-12-08T19:14:17;17.70;;;11.60;;
62535;SDS011;63050;47.514;18.920;2022-12-08T19:19:19;15.80;;;11.80;;
62535;SDS011;63050;47.514;18.920;2022-12-08T19:24:21;16.50;;;11.80;;
62535;SDS011;63050;47.514;18.920;2022-12-08T19:29:23;16.90;;;12.30;;
62535;SDS011;63050;47.514;18.920;2022-12-08T19:34:24;19.70;;;14.10;;
62535;SDS011;63050;47.514;18.920;2022-12-08T19:39:27;19.10;;;12.50;;
62535;SDS011;63050;47.514;18.920;2022-12-08T19:44:46;16.10;;;12.10;;
62535;SDS011;63050;47.514;18.920;2022-12-08T19:49:54;18.20;;;12.70;;
62535;SDS011;63050;47.514;18.920;2022-12-08T19:55:15;19.60;;;14.30;;
62535;SDS011;63050;47.514;18.920;2022-12-08T20:00:17;18.50;;;13.60;;
62535;SDS011;63050;47.514;18.920;2022-12-08T20:05:19;18.10;;;12.60;;
62535;SDS011;63050;47.514;18.920;2022-12-08T20:10:22;18.60;;;12.80;;
62535;SDS011;63050;47.514;18.920;2022-12-08T20:15:29;17.00;;;12.20;;
62535;SDS011;63050;47.514;18.920;2022-12-08T20:20:32;16.90;;;12.80;;
62535;SDS011;63050;47.514;18.920;2022-12-08T20:25:33;17.70;;;12.70;;
62535;SDS011;63050;47.514;18.920;2022-12-08T20:30:41;17.10;;;12.20;;
62535;SDS011;63050;47.514;18.920;2022-12-08T20:35:45;17.50;;;12.20;;
62535;SDS011;63050;47.514;18.920;2022-12-08T20:40:46;16.80;;;13.10;;
62535;SDS011;63050;47.514;18.920;2022-12-08T20:45:49;21.80;;;12.50;;
62535;SDS011;63050;47.514;18.920;2022-12-08T20:50:51;15.70;;;12.50;;
62535;SDS011;63050;47.514;18.920;2022-12-08T20:55:54;16.90;;;11.80;;
62535;SDS011;63050;47.514;18.920;2022-12-08T21:00:55;17.00;;;12.40;;
62535;SDS011;63050;47.514;18.920;2022-12-08T21:05:56;18.50;;;12.90;;
62535;SDS011;63050;47.514;18.920;2022-12-08T21:10:58;21.10;;;13.50;;
62535;SDS011;63050;47.514;18.920;2022-12-08T21:15:59;24.00;;;15.30;;
62535;SDS011;63050;47.514;18.920;2022-12-08T21:21:04;20.00;;;14.70;;
62535;SDS011;63050;47.514;18.920;2022-12-08T21:26:13;20.70;;;13.00;;
62535;SDS011;63050;47.514;18.920;2022-12-08T21:31:19;17.10;;;12.90;;
62535;SDS011;63050;47.514;18.920;2022-12-08T21:36:21;18.10;;;13.20;;
62535;SDS011;63050;47.514;18.920;2022-12-08T21:41:22;17.90;;;13.40;;
62535;SDS011;63050;47.514;18.920;2022-12-08T21:46:42;20.20;;;13.70;;
62535;SDS011;63050;47.514;18.920;2022-12-08T21:51:42;18.70;;;12.90;;
62535;SDS011;63050;47.514;18.920;2022-12-08T21:56:44;21.30;;;13.10;;
62535;SDS011;63050;47.514;18.920;2022-12-08T22:01:45;19.70;;;13.90;;
62535;SDS011;63050;47.514;18.920;2022-12-08T22:06:46;19.10;;;13.50;;
62535;SDS011;63050;47.514;18.920;2022-12-08T22:11:48;19.30;;;14.20;;
62535;SDS011;63050;47.514;18.920;2022-12-08T22:16:48;20.70;;;13.30;;
62535;SDS011;63050;47.514;18.920;2022-12-08T22:21:49;22.30;;;13.20;;
62535;SDS011;63050;47.514;18.920;2022-12-08T22:26:50;22.90;;;14.70;;
62535;SDS011;63050;47.514;18.920;2022-12-08T22:31:51;22.30;;;14.70;;
62535;SDS011;63050;47.514;18.920;2022-12-08T22:36:52;22.30;;;15.60;;
62535;SDS011;63050;47.514;18.920;2022-12-08T22:41:53;21.50;;;14.60;;
62535;SDS011;63050;47.514;18.920;2022-12-08T22:46:53;21.80;;;15.30;;
62535;SDS011;63050;47.514;18.920;2022-12-08T22:51:54;23.70;;;15.20;;
62535;SDS011;63050;47.514;18.920;2022-12-08T22:56:55;22.40;;;16.30;;
62535;SDS011;63050;47.514;18.920;2022-12-08T23:01:56;24.60;;;16.00;;
62535;SDS011;63050;47.514;18.920;2022-12-08T23:06:57;21.30;;;14.80;;
62535;SDS011;63050;47.514;18.920;2022-12-08T23:11:57;19.70;;;14.30;;
62535;SDS011;63050;47.514;18.920;2022-12-08T23:16:58;19.90;;;13.90;;
62535;SDS011;63050;47.514;18.920;2022-12-08T23:21:59;18.00;;;13.20;;
62535;SDS011;63050;47.514;18.920;2022-12-08T23:27:00;20.40;;;14.40;;
62535;SDS011;63050;47.514;18.920;2022-12-08T23:32:00;23.50;;;14.90;;
62535;SDS011;63050;47.514;18.920;2022-12-08T23:37:01;20.40;;;14.40;;
62535;SDS011;63050;47.514;18.920;2022-12-08T23:42:02;18.70;;;13.80;;
62535;SDS011;63050;47.514;18.920;2022-12-08T23:47:03;21.20;;;16.40;;
62535;SDS011;63050;47.514;18.920;2022-12-08T23:52:04;21.20;;;15.10;;
62535;SDS011;63050;47.514;18.920;2022-12-08T23:57:05;22.20;;;15.20;;
